PWSweather.com
Personal Weather Stations
Station Observations
EDDERTON
Rossshire, EddertonGB IV191LA

RossshireEddertonGB IV191LA

Lat: 57.838, Lon: -4.176

Elevation: 60

Station Type: Davis Vantage PRO2 Wireless With Solar Sensor

http://www.ardmore-lodge.com

Latest ConditionsUpdated 9:15:01 AM GMT Sunday, Apr 19, 2015
Currently Today's Max Today's Min Today's Average
Temperature 46.5°F8.1°C 46.5°F8.1°C 32.5°F0.3°C 37.4°F3.0°C
Dew Point 43.2°F6.2°C 43.2°F6.2°C 31.1°F-0.5°C 35.7°F2.1°C
Winds 1.2 mph SE1.9 kmh SE 2.3 mph SE3.7 kmh SE - 1.1 mph 1.8 kmh
Wind Gusts 3.5 mph5.6 kmh 3.5 mph5.6 kmh - -
Humidity 88% 96% 88% 94%
Pressure 30.48 in1032.2 mb 30.49 in1032.5 mb 30.46 in1031.5 mb -
Hour Temp Dew Point Humidity Winds Wind Gusts Pressure Precip Precip Rate Daily Precip Total
09:15 AM 46.5°F8.1°C 43.2°F6.2°C 88% 1.2 mph SE1.9 kmh SE 3.5 mph5.6 kmh 30.48 in1032.2 mb - 0.00 in0.0 mm 0.00 in0.0 mm
09:00 AM 46.3°F7.9°C 42.9°F6.1°C 88% 1.2 mph SE1.9 kmh SE 2.3 mph3.7 kmh 30.48 in1032.2 mb - 0.00 in0.0 mm 0.00 in0.0 mm
08:45 AM 46.2°F7.9°C 43.1°F6.2°C 89% Calm Calm 1.2 mph1.9 kmh 30.48 in1032.2 mb - 0.00 in0.0 mm 0.00 in0.0 mm
08:30 AM 45.7°F7.6°C 42.9°F6.1°C 90% Calm Calm -- 30.48 in1032.2 mb - 0.00 in0.0 mm 0.00 in0.0 mm
08:15 AM 44.1°F6.7°C 41.4°F5.2°C 90% Calm Calm -- 30.47 in1031.8 mb - 0.00 in0.0 mm 0.00 in0.0 mm
08:00 AM 43.0°F6.1°C 40.2°F4.6°C 90% Calm Calm -- 30.48 in1032.2 mb - 0.00 in0.0 mm 0.00 in0.0 mm
07:45 AM 42.1°F5.6°C 39.7°F4.3°C 91% 1.2 mph SE1.9 kmh SE 1.2 mph1.9 kmh 30.48 in1032.2 mb - 0.00 in0.0 mm 0.00 in0.0 mm
07:30 AM 42.3°F5.7°C 39.3°F4.1°C 89% 2.3 mph SE3.7 kmh SE 2.3 mph3.7 kmh 30.48 in1032.2 mb - 0.00 in0.0 mm 0.00 in0.0 mm
07:15 AM 41.8°F5.4°C 39.7°F4.3°C 92% Calm Calm -- 30.48 in1032.2 mb - 0.00 in0.0 mm 0.00 in0.0 mm
07:00 AM 41.2°F5.1°C 39.3°F4.1°C 93% 1.2 mph SE1.9 kmh SE 3.5 mph5.6 kmh 30.48 in1032.2 mb - 0.00 in0.0 mm 0.00 in0.0 mm
06:45 AM 39.3°F4.1°C 38.2°F3.4°C 96% 2.3 mph SE3.7 kmh SE 3.5 mph5.6 kmh 30.48 in1032.2 mb - 0.00 in0.0 mm 0.00 in0.0 mm
06:30 AM 37.2°F2.9°C 35.9°F2.2°C 95% Calm Calm -- 30.48 in1032.2 mb - 0.00 in0.0 mm 0.00 in0.0 mm
06:15 AM 35.2°F1.8°C 33.9°F1.1°C 95% 1.2 mph SE1.9 kmh SE 2.3 mph3.7 kmh 30.48 in1032.2 mb - 0.00 in0.0 mm 0.00 in0.0 mm
06:00 AM 34.4°F1.3°C 33.1°F0.6°C 95% Calm Calm -- 30.48 in1032.2 mb - 0.00 in0.0 mm 0.00 in0.0 mm
05:45 AM 33.5°F0.8°C 32.2°F0.1°C 95% Calm Calm 2.3 mph3.7 kmh 30.47 in1031.8 mb - 0.00 in0.0 mm 0.00 in0.0 mm
05:30 AM 33.0°F0.6°C 31.7°F-0.2°C 95% 2.3 mph SE3.7 kmh SE 3.5 mph5.6 kmh 30.47 in1031.8 mb - 0.00 in0.0 mm 0.00 in0.0 mm
05:15 AM 33.1°F0.6°C 31.8°F-0.1°C 95% 1.2 mph SE1.9 kmh SE 2.3 mph3.7 kmh 30.47 in1031.8 mb - 0.00 in0.0 mm 0.00 in0.0 mm
05:00 AM 32.6°F0.3°C 31.3°F-0.4°C 95% 1.2 mph SE1.9 kmh SE 3.5 mph5.6 kmh 30.47 in1031.8 mb - 0.00 in0.0 mm 0.00 in0.0 mm
04:45 AM 33.3°F0.7°C 32.0°F0.0°C 95% 2.3 mph SE3.7 kmh SE 2.3 mph3.7 kmh 30.46 in1031.5 mb - 0.00 in0.0 mm 0.00 in0.0 mm
04:30 AM 32.9°F0.5°C 31.6°F-0.2°C 95% Calm Calm -- 30.47 in1031.8 mb - 0.00 in0.0 mm 0.00 in0.0 mm
04:15 AM 33.5°F0.8°C 32.5°F0.3°C 96% 1.2 mph SE1.9 kmh SE 3.5 mph5.6 kmh 30.46 in1031.5 mb - 0.00 in0.0 mm 0.00 in0.0 mm
04:00 AM 32.5°F0.3°C 31.2°F-0.4°C 95% 1.2 mph SE1.9 kmh SE 2.3 mph3.7 kmh 30.47 in1031.8 mb - 0.00 in0.0 mm 0.00 in0.0 mm
03:45 AM 32.6°F0.3°C 31.1°F-0.5°C 94% 2.3 mph SE3.7 kmh SE 2.3 mph3.7 kmh 30.47 in1031.8 mb - 0.00 in0.0 mm 0.00 in0.0 mm
03:30 AM 33.6°F0.9°C 32.0°F0.0°C 94% 1.2 mph SE1.9 kmh SE 2.3 mph3.7 kmh 30.48 in1032.2 mb - 0.00 in0.0 mm 0.00 in0.0 mm
03:15 AM 34.2°F1.2°C 32.9°F0.5°C 95% Calm Calm -- 30.47 in1031.8 mb - 0.00 in0.0 mm 0.00 in0.0 mm
03:00 AM 34.3°F1.3°C 33.0°F0.6°C 95% 1.2 mph SE1.9 kmh SE 3.5 mph5.6 kmh 30.47 in1031.8 mb - 0.00 in0.0 mm 0.00 in0.0 mm
02:45 AM 34.3°F1.3°C 33.0°F0.6°C 95% 1.2 mph SE1.9 kmh SE 2.3 mph3.7 kmh 30.47 in1031.8 mb - 0.00 in0.0 mm 0.00 in0.0 mm
02:30 AM 34.9°F1.6°C 33.4°F0.8°C 94% 2.3 mph SE3.7 kmh SE 3.5 mph5.6 kmh 30.46 in1031.5 mb - 0.00 in0.0 mm 0.00 in0.0 mm
02:15 AM 35.6°F2.0°C 34.3°F1.3°C 95% 1.2 mph SE1.9 kmh SE 1.2 mph1.9 kmh 30.47 in1031.8 mb - 0.00 in0.0 mm 0.00 in0.0 mm
02:00 AM 36.0°F2.2°C 34.7°F1.5°C 95% 1.2 mph SE1.9 kmh SE 2.3 mph3.7 kmh 30.48 in1032.2 mb - 0.00 in0.0 mm 0.00 in0.0 mm
01:45 AM 36.2°F2.3°C 34.9°F1.6°C 95% 1.2 mph SE1.9 kmh SE 3.5 mph5.6 kmh 30.48 in1032.2 mb - 0.00 in0.0 mm 0.00 in0.0 mm
01:30 AM 36.7°F2.6°C 35.4°F1.9°C 95% 2.3 mph SE3.7 kmh SE 3.5 mph5.6 kmh 30.49 in1032.5 mb - 0.00 in0.0 mm 0.00 in0.0 mm
01:15 AM 37.3°F2.9°C 36.0°F2.2°C 95% 1.2 mph SE1.9 kmh SE 2.3 mph3.7 kmh 30.49 in1032.5 mb - 0.00 in0.0 mm 0.00 in0.0 mm
01:00 AM 37.1°F2.8°C 36.1°F2.3°C 96% 1.2 mph SE1.9 kmh SE 2.3 mph3.7 kmh 30.49 in1032.5 mb - 0.00 in0.0 mm 0.00 in0.0 mm
12:45 AM 36.9°F2.7°C 35.6°F2.0°C 95% 1.2 mph SE1.9 kmh SE 2.3 mph3.7 kmh 30.49 in1032.5 mb - 0.00 in0.0 mm 0.00 in0.0 mm
12:30 AM 37.0°F2.8°C 35.7°F2.1°C 95% 1.2 mph SE1.9 kmh SE 2.3 mph3.7 kmh 30.49 in1032.5 mb - 0.00 in0.0 mm 0.00 in0.0 mm
12:15 AM 36.8°F2.7°C 35.5°F1.9°C 95% 1.2 mph SE1.9 kmh SE 2.3 mph3.7 kmh 30.49 in1032.5 mb - 0.00 in0.0 mm 0.00 in0.0 mm
12:00 AM 36.7°F2.6°C 35.4°F1.9°C 95% 1.2 mph SE1.9 kmh SE 2.3 mph3.7 kmh 30.49 in1032.5 mb - 0.00 in0.0 mm 0.00 in0.0 mm